Time;durP1;ratioP1;P1;durP2;ratioP2;P2;SDS_P1;SDS_P2;PMS_P1;PMS_P2;Temp;Humidity;BMP_temperature;BMP_pressure;BME280_temperature;BME280_humidity;BME280_pressure;Samples;Min_cycle;Max_cycle;Signal;HPM_P1;HPM_P2
2021/11/08 00:01:18;;;;;;;40.08;14.65;;;18.70;99.90;;;;;;5035484;28;20086;-78
2021/11/08 00:03:52;;;;;;;34.92;12.13;;;18.70;99.90;;;;;;5035127;28;20063;-79
2021/11/08 00:06:19;;;;;;;38.03;12.15;;;18.70;99.90;;;;;;5053435;28;20032;-72
2021/11/08 00:08:45;;;;;;;36.30;11.95;;;18.60;99.90;;;;;;5053255;28;20033;-77
2021/11/08 00:11:12;;;;;;;29.35;12.15;;;18.60;99.90;;;;;;5053297;28;20044;-72
2021/11/08 00:13:38;;;;;;;30.15;11.32;;;18.60;99.90;;;;;;5035729;28;20025;-71
2021/11/08 00:21:01;;;;;;;34.58;11.52;;;18.50;99.90;;;;;;5056732;28;20040;-83
2021/11/08 00:23:28;;;;;;;36.35;11.77;;;18.50;99.90;;;;;;5065856;28;20037;-72
2021/11/08 00:25:55;;;;;;;31.80;11.80;;;18.50;99.90;;;;;;5043646;28;20027;-79
2021/11/08 00:28:21;;;;;;;35.83;13.27;;;18.40;99.90;;;;;;5061666;28;20021;-71
2021/11/08 00:30:49;;;;;;;31.80;10.75;;;18.40;99.90;;;;;;5059613;28;20029;-83
2021/11/08 00:33:18;;;;;;;36.45;12.40;;;18.40;99.90;;;;;;5057176;28;20040;-83
2021/11/08 00:35:45;;;;;;;36.88;12.45;;;18.40;99.90;;;;;;5058646;28;20032;-77
2021/11/08 00:38:11;;;;;;;35.78;13.88;;;18.40;99.90;;;;;;5058601;28;20059;-73
2021/11/08 00:40:38;;;;;;;46.28;13.02;;;18.30;99.90;;;;;;5042401;28;20120;-74
2021/11/08 00:43:07;;;;;;;34.00;12.52;;;18.40;99.90;;;;;;5057405;28;20429;-73
2021/11/08 00:45:33;;;;;;;31.70;12.90;;;18.40;99.90;;;;;;5057028;28;20093;-76
2021/11/08 00:47:59;;;;;;;35.08;12.00;;;18.40;99.90;;;;;;5057893;28;20024;-73
2021/11/08 00:50:27;;;;;;;33.22;12.48;;;18.50;99.90;;;;;;5057488;28;20025;-71
2021/11/08 00:52:53;;;;;;;41.08;12.00;;;18.50;99.90;;;;;;5057212;28;20422;-74
2021/11/08 00:55:20;;;;;;;31.38;11.40;;;18.60;99.90;;;;;;5057976;28;20053;-82
2021/11/08 00:57:48;;;;;;;35.03;11.73;;;18.60;99.90;;;;;;5039011;28;20056;-74
2021/11/08 01:00:17;;;;;;;36.33;11.50;;;18.60;99.90;;;;;;5056014;28;20092;-75
2021/11/08 01:02:43;;;;;;;32.50;11.90;;;18.60;99.90;;;;;;5056033;28;20059;-72
2021/11/08 01:05:11;;;;;;;35.78;11.98;;;18.50;99.90;;;;;;5056043;28;20037;-76
2021/11/08 01:07:37;;;;;;;31.08;11.55;;;18.50;99.90;;;;;;5056181;28;20215;-84
2021/11/08 01:10:08;;;;;;;32.75;12.23;;;18.50;99.90;;;;;;5055925;28;20088;-72
2021/11/08 01:12:34;;;;;;;35.10;11.38;;;18.50;99.90;;;;;;5056200;28;20025;-81
2021/11/08 01:15:01;;;;;;;31.15;12.63;;;18.50;99.90;;;;;;5057010;28;20028;-82
2021/11/08 01:17:27;;;;;;;28.63;12.23;;;18.50;99.90;;;;;;5056221;28;20017;-83
2021/11/08 01:19:53;;;;;;;34.97;12.45;;;18.50;99.90;;;;;;5056015;28;20504;-70
2021/11/08 01:22:21;;;;;;;28.65;11.90;;;18.50;99.90;;;;;;5079866;22;20093;-71
2021/11/08 01:24:56;;;;;;;30.20;11.82;;;18.50;99.90;;;;;;5095579;28;20055;-71
2021/11/08 01:27:31;;;;;;;34.50;13.07;;;18.40;99.90;;;;;;5095543;28;20028;-70
2021/11/08 01:29:58;;;;;;;34.08;12.70;;;18.40;99.90;;;;;;5095507;28;20046;-70
2021/11/08 01:32:24;;;;;;;29.65;12.60;;;18.30;99.90;;;;;;5114954;28;20082;-72
2021/11/08 01:34:49;;;;;;;30.80;11.93;;;18.30;99.90;;;;;;5116135;28;20055;-71
2021/11/08 01:37:20;;;;;;;27.92;12.40;;;18.30;99.90;;;;;;5097683;28;20490;-70
2021/11/08 01:39:46;;;;;;;34.05;12.23;;;18.30;99.90;;;;;;5116043;28;20060;-71
2021/11/08 01:42:14;;;;;;;26.75;12.32;;;18.30;99.90;;;;;;5115721;28;20077;-71
2021/11/08 01:44:41;;;;;;;28.17;10.80;;;18.20;99.90;;;;;;5115781;28;20484;-70
2021/11/08 01:47:08;;;;;;;32.85;11.90;;;18.30;99.90;;;;;;5115839;28;20027;-72
2021/11/08 01:49:35;;;;;;;35.38;11.95;;;18.30;99.90;;;;;;5115783;28;20081;-71
2021/11/08 01:52:01;;;;;;;33.08;11.65;;;18.30;99.90;;;;;;5115721;28;20044;-71
2021/11/08 01:54:27;;;;;;;35.03;11.27;;;18.30;99.90;;;;;;5115813;28;20082;-71
2021/11/08 01:56:56;;;;;;;35.67;12.32;;;18.30;99.90;;;;;;5115643;28;20020;-71
2021/11/08 01:59:23;;;;;;;30.15;11.30;;;18.30;99.90;;;;;;5115591;28;20020;-71
2021/11/08 02:01:50;;;;;;;25.50;11.02;;;18.30;99.90;;;;;;5115560;28;20028;-70
2021/11/08 02:04:17;;;;;;;30.63;10.88;;;18.30;99.90;;;;;;5115732;28;20047;-71
2021/11/08 02:06:43;;;;;;;29.75;10.75;;;18.30;99.90;;;;;;5115614;28;20042;-72
2021/11/08 02:09:09;;;;;;;27.08;10.20;;;18.30;99.90;;;;;;5115657;28;20035;-71
2021/11/08 02:11:36;;;;;;;30.23;11.25;;;18.30;99.90;;;;;;5115959;28;20030;-72
2021/11/08 02:14:04;;;;;;;30.17;11.40;;;18.30;99.90;;;;;;5115516;28;20035;-72
2021/11/08 02:16:30;;;;;;;31.50;10.88;;;18.30;99.90;;;;;;5115349;28;20034;-71
2021/11/08 02:18:58;;;;;;;26.20;9.93;;;18.20;99.90;;;;;;5115096;28;20472;-71
2021/11/08 02:21:26;;;;;;;25.23;10.65;;;18.20;99.90;;;;;;5114844;28;20072;-71
2021/11/08 02:23:52;;;;;;;29.45;10.05;;;18.20;99.90;;;;;;5114879;28;20032;-71
2021/11/08 02:26:18;;;;;;;31.70;10.80;;;18.20;99.90;;;;;;5114983;28;20038;-71
2021/11/08 02:28:46;;;;;;;30.50;11.32;;;18.20;99.90;;;;;;5114911;28;20020;-71
2021/11/08 02:31:18;;;;;;;28.15;10.50;;;18.20;99.90;;;;;;5114879;28;20115;-72
2021/11/08 02:33:49;;;;;;;23.73;9.70;;;18.20;99.90;;;;;;5096684;28;20135;-70
2021/11/08 02:36:16;;;;;;;32.50;10.60;;;18.20;99.90;;;;;;5115012;28;20093;-72
2021/11/08 02:38:47;;;;;;;27.63;10.15;;;18.10;99.90;;;;;;5114631;28;20024;-72
2021/11/08 02:41:15;;;;;;;25.05;10.15;;;18.10;99.90;;;;;;5114580;28;20028;-71
2021/11/08 02:43:41;;;;;;;24.48;10.13;;;18.10;99.90;;;;;;5113914;28;20027;-70
2021/11/08 02:46:13;;;;;;;25.02;10.55;;;18.10;99.90;;;;;;5114558;28;20028;-71
2021/11/08 02:48:41;;;;;;;21.90;9.68;;;18.10;99.90;;;;;;5114918;28;20027;-71
2021/11/08 02:53:41;;;;;;;29.08;10.13;;;18.00;99.90;;;;;;5114758;28;20084;-71
2021/11/08 02:56:08;;;;;;;21.20;9.95;;;17.90;99.90;;;;;;5114498;28;20464;-71
2021/11/08 02:58:37;;;;;;;20.75;9.20;;;17.90;99.90;;;;;;5114279;28;20027;-71
2021/11/08 03:01:03;;;;;;;29.80;9.15;;;17.90;99.90;;;;;;5114325;28;20484;-71
2021/11/08 03:03:35;;;;;;;25.52;9.57;;;17.80;99.90;;;;;;5114253;28;20102;-71
2021/11/08 03:06:09;;;;;;;23.15;9.50;;;17.80;99.90;;;;;;5114400;28;20103;-70
2021/11/08 03:08:35;;;;;;;25.75;8.57;;;17.80;99.90;;;;;;5114665;28;20077;-71
2021/11/08 03:11:02;;;;;;;20.02;8.02;;;17.80;99.90;;;;;;5114546;28;20039;-70
2021/11/08 03:13:28;;;;;;;24.17;8.27;;;17.80;99.90;;;;;;5114170;28;20024;-71
2021/11/08 03:16:16;;;;;;;28.83;9.15;;;17.80;99.90;;;;;;5114150;28;20023;-72
2021/11/08 03:18:44;;;;;;;22.35;7.35;;;17.80;99.90;;;;;;5114330;28;20027;-72
2021/11/08 03:21:18;;;;;;;20.83;7.00;;;17.70;99.90;;;;;;5113969;28;20087;-71
2021/11/08 03:23:47;;;;;;;19.90;7.85;;;17.80;99.90;;;;;;5113975;28;20326;-71
2021/11/08 03:28:39;;;;;;;18.23;6.80;;;17.70;99.90;;;;;;5114089;28;20039;-72
2021/11/08 03:31:11;;;;;;;24.60;7.13;;;17.70;99.90;;;;;;5113902;28;20031;-71
2021/11/08 03:33:39;;;;;;;21.67;6.85;;;17.70;99.90;;;;;;5113807;28;20051;-71
2021/11/08 03:36:06;;;;;;;18.05;6.43;;;17.70;99.90;;;;;;5113770;28;20460;-71
2021/11/08 03:38:37;;;;;;;20.15;6.50;;;17.70;99.90;;;;;;5113693;28;20483;-71
2021/11/08 03:41:03;;;;;;;20.35;6.72;;;17.70;99.90;;;;;;5113497;28;20036;-71
2021/11/08 03:43:28;;;;;;;17.30;6.78;;;17.70;99.90;;;;;;5113681;28;20031;-71
2021/11/08 03:45:55;;;;;;;18.45;6.60;;;17.70;99.90;;;;;;5113592;28;20092;-70
2021/11/08 03:48:20;;;;;;;19.52;7.95;;;17.70;99.90;;;;;;5095079;28;20023;-71
2021/11/08 03:50:48;;;;;;;25.35;6.85;;;17.70;99.90;;;;;;5113223;28;20093;-71
2021/11/08 03:53:14;;;;;;;23.30;7.15;;;17.70;99.90;;;;;;5114175;28;20023;-72
2021/11/08 03:55:44;;;;;;;20.83;6.70;;;17.70;99.90;;;;;;5114002;28;20027;-70
2021/11/08 03:58:09;;;;;;;16.63;6.40;;;17.70;99.90;;;;;;5113680;28;20028;-71
2021/11/08 04:00:36;;;;;;;16.67;6.90;;;17.70;99.90;;;;;;5113237;28;20084;-71
2021/11/08 04:03:04;;;;;;;21.08;6.95;;;17.70;99.90;;;;;;5113315;28;20050;-71
2021/11/08 04:05:34;;;;;;;20.73;6.50;;;17.70;99.90;;;;;;5113195;28;20031;-70
2021/11/08 04:08:07;;;;;;;17.77;6.05;;;17.70;99.90;;;;;;5113214;28;20064;-70
2021/11/08 04:10:34;;;;;;;23.02;6.65;;;17.60;99.90;;;;;;5113139;28;20458;-71
2021/11/08 04:13:04;;;;;;;17.52;6.90;;;17.60;99.90;;;;;;5113302;28;20031;-71
2021/11/08 04:15:36;;;;;;;21.52;6.65;;;17.70;99.90;;;;;;5095703;28;20035;-72
2021/11/08 04:18:07;;;;;;;19.27;6.55;;;17.70;99.90;;;;;;5113422;28;20019;-71
2021/11/08 04:20:34;;;;;;;20.95;6.68;;;17.70;99.90;;;;;;5113224;28;20061;-70
2021/11/08 04:23:00;;;;;;;18.08;6.82;;;17.80;99.90;;;;;;5112945;28;20039;-72
2021/11/08 04:25:27;;;;;;;21.83;6.68;;;17.80;99.90;;;;;;5113027;28;20365;-72
2021/11/08 04:27:53;;;;;;;14.02;6.15;;;17.80;99.90;;;;;;5112858;28;20035;-70
2021/11/08 04:30:22;;;;;;;20.52;7.10;;;17.80;99.90;;;;;;5111523;28;20084;-72
2021/11/08 04:36:10;;;;;;;20.10;6.75;;;17.80;99.90;;;;;;5101248;28;20032;-74
2021/11/08 04:38:28;;;;;;;17.77;6.60;;;17.80;99.90;;;;;;5084867;28;20032;-71
2021/11/08 04:41:16;;;;;;;21.58;6.72;;;17.80;99.90;;;;;;5092564;28;20093;-71
2021/11/08 04:54:17;;;;;;;21.00;5.78;;;17.60;99.90;;;;;;5110485;28;20031;-71
2021/11/08 05:32:20;;;;;;;22.48;6.07;;;17.60;99.90;;;;;;5116355;28;20024;-70
2021/11/08 05:34:46;;;;;;;22.02;6.40;;;17.60;99.90;;;;;;5098589;28;20027;-72
2021/11/08 05:37:12;;;;;;;24.23;6.68;;;17.50;99.90;;;;;;5116494;28;20098;-71
2021/11/08 05:39:48;;;;;;;20.67;6.22;;;17.50;99.90;;;;;;5116256;28;20059;-71
2021/11/08 05:42:15;;;;;;;18.13;6.53;;;17.60;99.90;;;;;;5116189;28;20111;-71
2021/11/08 05:44:41;;;;;;;20.85;6.05;;;17.50;99.90;;;;;;5116076;28;20119;-71
2021/11/08 05:47:08;;;;;;;18.17;6.25;;;17.60;99.90;;;;;;5116459;28;20035;-71
2021/11/08 05:49:34;;;;;;;21.35;7.10;;;17.50;99.90;;;;;;5115977;28;20031;-72
2021/11/08 05:52:00;;;;;;;22.48;6.65;;;17.50;99.90;;;;;;5116248;28;20024;-71
2021/11/08 05:54:26;;;;;;;18.95;6.10;;;17.50;99.90;;;;;;5116104;28;20023;-71
2021/11/08 06:51:20;;;;;;;22.95;9.05;;;17.50;99.90;;;;;;5114302;28;20092;-72
2021/11/08 06:53:47;;;;;;;18.40;7.95;;;17.50;99.90;;;;;;5114085;28;20047;-72
2021/11/08 06:56:16;;;;;;;18.98;8.82;;;17.50;99.90;;;;;;5114048;28;20396;-72
2021/11/08 06:58:42;;;;;;;22.48;9.85;;;17.50;99.90;;;;;;5113816;28;20154;-72
2021/11/08 07:01:08;;;;;;;22.27;8.82;;;17.50;99.90;;;;;;5095758;28;20038;-71
2021/11/08 07:03:33;;;;;;;21.55;8.60;;;17.50;99.90;;;;;;5114825;28;20035;-72
2021/11/08 07:05:59;;;;;;;22.17;8.68;;;17.50;99.90;;;;;;5114237;28;20016;-71
2021/11/08 07:08:25;;;;;;;18.85;9.00;;;17.60;99.90;;;;;;5114377;28;20453;-72
2021/11/08 07:10:51;;;;;;;23.20;8.60;;;17.60;99.90;;;;;;5096159;28;20460;-74
2021/11/08 07:13:16;;;;;;;23.73;9.43;;;17.70;99.90;;;;;;5114237;28;20024;-70
2021/11/08 07:15:43;;;;;;;24.90;9.32;;;17.80;99.90;;;;;;5113113;28;20031;-72
2021/11/08 07:18:09;;;;;;;19.30;8.65;;;17.80;99.90;;;;;;5113557;28;20099;-71
2021/11/08 07:20:35;;;;;;;21.73;9.95;;;17.90;99.90;;;;;;5113769;28;20063;-71
2021/11/08 07:23:01;;;;;;;20.27;10.15;;;18.00;99.90;;;;;;5113434;28;20039;-71
2021/11/08 07:25:27;;;;;;;19.33;9.80;;;18.10;99.90;;;;;;5113981;28;20028;-73
2021/11/08 07:27:53;;;;;;;22.42;10.18;;;18.20;99.70;;;;;;5113719;28;20469;-73
2021/11/08 07:30:21;;;;;;;27.95;9.85;;;18.40;99.50;;;;;;5113217;28;20132;-71
2021/11/08 07:32:47;;;;;;;27.85;11.38;;;18.50;99.40;;;;;;5113764;28;20107;-70
2021/11/08 07:35:13;;;;;;;30.52;10.50;;;18.50;99.10;;;;;;5114643;28;20051;-71
2021/11/08 07:37:38;;;;;;;27.42;10.63;;;18.50;99.00;;;;;;5114141;28;20020;-71
2021/11/08 07:40:04;;;;;;;25.58;12.52;;;18.60;99.10;;;;;;5113850;28;20027;-69
2021/11/08 07:42:30;;;;;;;27.65;10.90;;;18.60;98.90;;;;;;5113605;28;20377;-69
2021/11/08 07:44:56;;;;;;;26.23;10.30;;;18.60;99.10;;;;;;5113626;28;20329;-71
2021/11/08 07:47:22;;;;;;;24.90;10.00;;;18.60;98.80;;;;;;5113281;28;20156;-72
2021/11/08 07:49:47;;;;;;;27.50;10.48;;;18.70;99.00;;;;;;5113435;28;20142;-71
2021/11/08 07:52:14;;;;;;;23.85;9.85;;;18.70;98.60;;;;;;5113245;28;20019;-70
2021/11/08 07:54:39;;;;;;;23.27;10.32;;;18.70;98.60;;;;;;5113331;28;20106;-72
2021/11/08 07:57:05;;;;;;;22.92;9.30;;;18.70;98.60;;;;;;5114174;28;20050;-72
2021/11/08 07:59:32;;;;;;;27.83;10.15;;;18.70;98.80;;;;;;5114398;28;20023;-74
2021/11/08 08:01:58;;;;;;;20.70;9.50;;;18.70;99.00;;;;;;5113789;28;20115;-72
2021/11/08 08:04:23;;;;;;;25.98;9.25;;;18.70;99.10;;;;;;5113621;28;20047;-71
2021/11/08 08:06:51;;;;;;;30.25;8.95;;;18.80;99.20;;;;;;5112837;28;20047;-72
2021/11/08 08:09:18;;;;;;;28.08;9.13;;;18.80;99.30;;;;;;5113573;28;20027;-71
2021/11/08 08:11:45;;;;;;;23.27;9.20;;;18.90;99.20;;;;;;5113328;28;20103;-71
2021/11/08 08:14:11;;;;;;;23.00;9.15;;;19.00;99.20;;;;;;5112820;28;20019;-73
2021/11/08 08:16:37;;;;;;;22.52;8.90;;;19.00;99.10;;;;;;5094862;28;20675;-72
2021/11/08 08:19:04;;;;;;;20.00;9.02;;;19.10;99.20;;;;;;5113433;28;20106;-72
2021/11/08 08:21:30;;;;;;;28.20;9.55;;;19.10;99.10;;;;;;5113143;28;20035;-72
2021/11/08 08:24:00;;;;;;;24.40;8.95;;;19.10;99.00;;;;;;5113189;28;20023;-72
2021/11/08 08:26:32;;;;;;;20.00;8.27;;;19.20;99.10;;;;;;5113221;28;20047;-72
2021/11/08 08:29:07;;;;;;;22.13;8.07;;;19.20;99.10;;;;;;5113321;28;20036;-72
2021/11/08 08:31:35;;;;;;;22.83;8.13;;;19.30;99.10;;;;;;5113266;28;20476;-72
2021/11/08 08:34:01;;;;;;;20.90;7.30;;;19.40;98.90;;;;;;5113344;28;20406;-72
2021/11/08 08:36:27;;;;;;;21.70;8.88;;;19.50;98.70;;;;;;5095013;28;20024;-71
2021/11/08 08:38:53;;;;;;;22.00;8.98;;;19.60;98.70;;;;;;5113469;28;20031;-73
2021/11/08 08:41:19;;;;;;;21.77;9.02;;;19.70;98.50;;;;;;5114724;28;20030;-72
2021/11/08 08:43:45;;;;;;;21.45;8.55;;;19.70;98.30;;;;;;5117517;28;20015;-72
2021/11/08 08:46:13;;;;;;;17.58;8.00;;;19.70;98.10;;;;;;5117232;28;20032;-71
2021/11/08 08:48:39;;;;;;;19.35;8.20;;;19.60;98.20;;;;;;5117346;28;20035;-71
2021/11/08 08:51:07;;;;;;;21.88;8.40;;;19.60;98.00;;;;;;5117299;28;20031;-72
2021/11/08 08:53:34;;;;;;;18.92;8.02;;;19.70;97.90;;;;;;5117426;28;20012;-72
2021/11/08 08:56:00;;;;;;;21.02;8.85;;;19.80;97.60;;;;;;5098802;28;20034;-73
2021/11/08 08:58:26;;;;;;;16.27;9.48;;;20.00;97.40;;;;;;5117260;28;20034;-72
2021/11/08 09:00:52;;;;;;;26.52;10.65;;;20.10;96.90;;;;;;5098411;28;20020;-71
2021/11/08 09:03:19;;;;;;;22.60;10.98;;;20.20;96.40;;;;;;5116925;28;20030;-72
2021/11/08 09:05:46;;;;;;;21.90;9.73;;;20.20;95.90;;;;;;5117011;28;20476;-72
2021/11/08 09:08:12;;;;;;;26.88;10.52;;;20.20;95.80;;;;;;5116771;28;20024;-72
2021/11/08 09:10:38;;;;;;;24.38;9.93;;;20.20;95.80;;;;;;5116653;28;20046;-72
2021/11/08 09:13:06;;;;;;;22.70;10.68;;;20.20;95.60;;;;;;5116724;28;20023;-71
2021/11/08 09:15:34;;;;;;;20.88;9.40;;;20.20;95.40;;;;;;5116577;28;20043;-72
2021/11/08 09:18:03;;;;;;;21.27;10.10;;;20.10;95.30;;;;;;5116591;28;20026;-72
2021/11/08 09:20:29;;;;;;;23.58;9.90;;;20.10;95.10;;;;;;5116332;28;20084;-72
2021/11/08 09:22:56;;;;;;;20.05;9.35;;;20.00;95.10;;;;;;5116415;28;20028;-72
2021/11/08 09:25:23;;;;;;;26.60;9.32;;;20.00;94.90;;;;;;5116457;28;20027;-72
2021/11/08 09:27:53;;;;;;;29.38;9.32;;;20.00;95.10;;;;;;5116422;28;20023;-73
2021/11/08 09:30:23;;;;;;;24.75;10.68;;;20.00;94.80;;;;;;5116191;28;20092;-73
2021/11/08 09:32:49;;;;;;;28.25;9.77;;;20.00;94.80;;;;;;5116165;28;20373;-73
2021/11/08 09:35:15;;;;;;;21.13;10.18;;;20.10;94.60;;;;;;5116256;28;20030;-72
2021/11/08 09:37:43;;;;;;;26.13;11.65;;;20.10;94.60;;;;;;5116365;28;20073;-73
2021/11/08 09:40:21;;;;;;;30.33;11.10;;;20.10;94.60;;;;;;5116319;28;20541;-72
2021/11/08 09:42:55;;;;;;;20.08;8.07;;;20.10;94.60;;;;;;5116363;28;20027;-74
2021/11/08 09:45:22;;;;;;;22.90;9.10;;;20.10;94.30;;;;;;5116163;28;20038;-72
2021/11/08 09:47:48;;;;;;;23.75;8.40;;;20.00;94.10;;;;;;5116331;28;20023;-73
2021/11/08 09:50:16;;;;;;;23.20;8.00;;;20.00;94.10;;;;;;5115674;28;20039;-73
2021/11/08 09:52:47;;;;;;;18.58;8.43;;;20.00;94.10;;;;;;5115649;28;20016;-73
2021/11/08 09:55:17;;;;;;;23.90;8.43;;;20.00;93.90;;;;;;5115694;28;20080;-72
2021/11/08 09:57:42;;;;;;;25.02;9.35;;;20.00;93.70;;;;;;5115941;28;20028;-72
2021/11/08 10:00:37;;;;;;;21.75;8.07;;;20.20;93.70;;;;;;5115425;28;20038;-74
2021/11/08 10:03:11;;;;;;;21.80;8.27;;;20.30;93.60;;;;;;5106154;28;20058;-72
2021/11/08 10:05:41;;;;;;;22.98;7.88;;;20.30;92.90;;;;;;5115657;28;20306;-72
2021/11/08 10:08:07;;;;;;;22.17;7.88;;;20.40;92.80;;;;;;5115253;28;20038;-73
2021/11/08 10:10:33;;;;;;;19.45;8.73;;;20.40;92.50;;;;;;5115532;28;20067;-72
2021/11/08 10:13:18;;;;;;;20.35;8.30;;;20.50;92.40;;;;;;5115380;28;20022;-72
2021/11/08 10:15:48;;;;;;;21.92;7.90;;;20.60;92.30;;;;;;5097162;28;20028;-72
2021/11/08 10:18:16;;;;;;;18.35;7.88;;;20.70;91.90;;;;;;5115379;28;20106;-73
2021/11/08 10:20:45;;;;;;;19.73;7.53;;;20.90;91.70;;;;;;5115033;28;20019;-73
2021/11/08 10:23:14;;;;;;;17.73;8.13;;;21.10;91.10;;;;;;5115048;28;20086;-72
2021/11/08 10:25:41;;;;;;;17.73;7.10;;;21.20;90.90;;;;;;5115057;28;20027;-72
2021/11/08 10:28:15;;;;;;;20.35;7.20;;;21.40;90.50;;;;;;5115187;28;20468;-73
2021/11/08 10:30:42;;;;;;;17.75;7.32;;;21.40;90.10;;;;;;5114675;28;20055;-72
2021/11/08 10:33:20;;;;;;;14.50;6.28;;;21.50;90.00;;;;;;5115400;28;20023;-73
2021/11/08 10:35:54;;;;;;;11.55;5.43;;;21.40;89.30;;;;;;5114734;28;20038;-72
2021/11/08 10:38:23;;;;;;;11.23;5.30;;;21.30;89.40;;;;;;5114945;28;20123;-72
2021/11/08 10:41:00;;;;;;;11.48;5.10;;;21.20;89.10;;;;;;5114767;28;20023;-73
2021/11/08 10:43:38;;;;;;;10.93;4.75;;;21.20;89.90;;;;;;5114898;28;20038;-72
2021/11/08 10:46:13;;;;;;;11.90;4.95;;;21.10;90.30;;;;;;5114924;28;20019;-71
2021/11/08 10:48:48;;;;;;;11.27;4.80;;;21.00;90.00;;;;;;5114909;28;20032;-75
2021/11/08 10:51:16;;;;;;;11.70;4.80;;;20.90;89.90;;;;;;5114376;28;20028;-73
2021/11/08 10:53:47;;;;;;;11.30;4.57;;;20.90;89.50;;;;;;5115434;28;20032;-73
2021/11/08 10:56:14;;;;;;;10.35;5.05;;;20.90;89.40;;;;;;5115190;28;20023;-73
2021/11/08 10:58:44;;;;;;;10.40;4.47;;;21.00;89.40;;;;;;5114643;28;20130;-73
2021/11/08 11:01:22;;;;;;;11.82;5.00;;;21.00;89.00;;;;;;5114654;28;20024;-73
2021/11/08 11:03:55;;;;;;;10.57;4.65;;;21.00;89.10;;;;;;5113748;28;20236;-73
2021/11/08 11:06:32;;;;;;;9.00;4.72;;;21.00;89.20;;;;;;5114303;28;20030;-72
2021/11/08 11:09:01;;;;;;;11.90;3.85;;;20.90;88.30;;;;;;5114097;28;20028;-73
2021/11/08 11:11:27;;;;;;;10.95;4.50;;;20.90;88.60;;;;;;5096267;28;20341;-73
2021/11/08 11:13:54;;;;;;;9.25;4.40;;;20.90;88.60;;;;;;5114477;28;20095;-72
2021/11/08 11:16:40;;;;;;;19.10;5.10;;;20.90;88.70;;;;;;5114263;28;20039;-72
2021/11/08 11:19:12;;;;;;;9.00;4.47;;;20.90;89.60;;;;;;5114384;28;20076;-73
2021/11/08 11:21:39;;;;;;;10.02;4.40;;;20.90;88.50;;;;;;5113944;28;20047;-72
2021/11/08 11:24:07;;;;;;;11.27;4.90;;;20.90;88.20;;;;;;5114149;28;20028;-72
2021/11/08 11:26:48;;;;;;;8.88;4.60;;;20.80;88.00;;;;;;5114263;28;20060;-73
2021/11/08 11:29:26;;;;;;;10.35;4.38;;;20.60;87.70;;;;;;5114054;28;20031;-73
2021/11/08 11:31:52;;;;;;;8.65;4.57;;;20.60;88.60;;;;;;5114064;28;20028;-73
2021/11/08 11:34:17;;;;;;;14.73;5.35;;;20.50;88.60;;;;;;5095767;28;20392;-72
2021/11/08 11:36:43;;;;;;;9.38;4.72;;;20.50;88.80;;;;;;5095529;28;20121;-74
2021/11/08 11:39:13;;;;;;;15.57;5.00;;;20.40;89.00;;;;;;5113975;28;20073;-72
2021/11/08 11:41:42;;;;;;;12.60;4.82;;;20.30;89.40;;;;;;5113899;28;20041;-72
2021/11/08 11:44:28;;;;;;;9.35;4.30;;;20.30;89.90;;;;;;5113970;28;20616;-74
2021/11/08 11:46:57;;;;;;;13.43;4.75;;;20.20;90.00;;;;;;5113319;28;20040;-73
2021/11/08 11:49:24;;;;;;;10.10;4.35;;;20.20;90.00;;;;;;5113583;28;20115;-72
2021/11/08 11:51:56;;;;;;;9.85;4.32;;;20.10;90.10;;;;;;5113297;28;20023;-74
2021/11/08 11:54:30;;;;;;;8.48;5.05;;;20.10;90.20;;;;;;5113578;28;20103;-73
2021/11/08 11:56:57;;;;;;;10.32;5.07;;;20.00;90.40;;;;;;5094885;28;20024;-71
2021/11/08 11:59:24;;;;;;;11.02;4.68;;;20.00;90.70;;;;;;5113408;28;20107;-72
2021/11/08 12:01:51;;;;;;;11.75;5.55;;;20.00;91.00;;;;;;5113664;28;20030;-72
2021/11/08 12:04:17;;;;;;;12.55;5.45;;;19.90;91.40;;;;;;5113471;28;20054;-73
2021/11/08 12:06:46;;;;;;;20.77;7.50;;;19.80;92.30;;;;;;5095435;28;20035;-73
2021/11/08 12:09:18;;;;;;;15.85;7.35;;;19.70;93.10;;;;;;5113584;28;20027;-72
2021/11/08 12:11:48;;;;;;;17.50;8.27;;;19.60;93.90;;;;;;5113347;28;20365;-73
2021/11/08 12:14:21;;;;;;;17.38;7.93;;;19.50;94.60;;;;;;5095126;28;20376;-72
2021/11/08 12:16:55;;;;;;;17.30;8.40;;;19.50;95.10;;;;;;5113525;28;20030;-72
2021/11/08 12:19:24;;;;;;;15.80;6.55;;;19.50;95.40;;;;;;5113453;28;20038;-73
2021/11/08 12:21:50;;;;;;;17.52;7.57;;;19.40;96.00;;;;;;5113261;28;20056;-73
2021/11/08 12:24:22;;;;;;;17.55;6.65;;;19.40;96.60;;;;;;5113195;28;20031;-73
2021/11/08 12:27:01;;;;;;;15.35;7.60;;;19.30;97.30;;;;;;5113363;28;20032;-73
2021/11/08 12:29:26;;;;;;;15.73;7.32;;;19.20;97.50;;;;;;5113093;28;20102;-74
2021/11/08 12:32:11;;;;;;;12.52;6.22;;;19.20;98.30;;;;;;5113000;28;20165;-71
2021/11/08 12:34:45;;;;;;;13.07;6.15;;;19.10;98.20;;;;;;5112981;28;20064;-75
2021/11/08 12:37:11;;;;;;;10.65;6.13;;;19.10;98.70;;;;;;5113476;28;20027;-74
2021/11/08 12:39:37;;;;;;;12.02;6.38;;;19.00;99.00;;;;;;5112935;28;20051;-72
2021/11/08 12:42:09;;;;;;;12.15;5.40;;;18.90;99.30;;;;;;5094598;28;20122;-72
2021/11/08 12:44:48;;;;;;;10.93;4.78;;;18.90;99.90;;;;;;5113426;28;20035;-74
2021/11/08 12:47:14;;;;;;;11.00;4.80;;;18.80;99.90;;;;;;5094641;28;20080;-72
2021/11/08 12:49:50;;;;;;;16.83;11.32;;;18.90;99.90;;;;;;5094873;28;20027;-72
2021/11/08 12:52:22;;;;;;;9.73;4.60;;;18.80;99.90;;;;;;5112798;28;20156;-74
2021/11/08 12:55:08;;;;;;;9.32;4.10;;;18.80;99.90;;;;;;5094712;28;20031;-73
2021/11/08 12:57:37;;;;;;;7.78;3.90;;;18.80;99.80;;;;;;5113805;28;20026;-72
2021/11/08 13:00:18;;;;;;;10.35;3.92;;;18.80;99.90;;;;;;5113372;28;20023;-72
2021/11/08 13:02:56;;;;;;;9.85;3.95;;;18.80;99.90;;;;;;5114023;28;20031;-74
2021/11/08 13:05:27;;;;;;;9.43;3.80;;;18.80;99.90;;;;;;5094867;28;20465;-72
2021/11/08 13:07:55;;;;;;;8.38;4.50;;;18.70;99.90;;;;;;5113413;28;20418;-73
2021/11/08 13:10:34;;;;;;;8.57;4.15;;;18.70;99.90;;;;;;5113391;28;20042;-74
2021/11/08 13:13:00;;;;;;;8.07;4.20;;;18.70;99.90;;;;;;5113019;28;20106;-73
2021/11/08 13:15:29;;;;;;;7.65;4.60;;;18.80;99.90;;;;;;5112844;28;20024;-72
2021/11/08 13:17:58;;;;;;;11.60;6.22;;;18.70;99.90;;;;;;5113457;28;20027;-73
2021/11/08 13:20:26;;;;;;;9.18;4.40;;;18.70;99.90;;;;;;5094548;28;20415;-73
2021/11/08 13:22:57;;;;;;;11.55;4.28;;;18.70;99.90;;;;;;5112319;28;20041;-73
2021/11/08 13:25:28;;;;;;;11.90;5.65;;;18.70;99.90;;;;;;5112623;28;20028;-73
2021/11/08 13:28:16;;;;;;;10.07;5.30;;;18.70;99.90;;;;;;5114390;28;20102;-73
2021/11/08 13:30:46;;;;;;;9.57;4.45;;;18.70;99.90;;;;;;5115967;28;20036;-73
2021/11/08 13:33:21;;;;;;;9.88;4.80;;;18.60;99.90;;;;;;5116212;28;20461;-72
2021/11/08 13:35:48;;;;;;;9.25;5.07;;;18.50;99.90;;;;;;5116264;28;20042;-74
2021/11/08 13:38:15;;;;;;;8.90;4.93;;;18.50;99.90;;;;;;5115875;28;20032;-73
2021/11/08 13:41:05;;;;;;;10.90;5.10;;;18.50;99.90;;;;;;5116012;28;20032;-73
2021/11/08 13:43:41;;;;;;;12.00;7.03;;;18.40;99.90;;;;;;5097580;28;20357;-73
2021/11/08 13:46:16;;;;;;;12.05;7.47;;;18.40;99.90;;;;;;5116153;28;20051;-73
2021/11/08 13:48:50;;;;;;;12.52;6.32;;;18.40;99.90;;;;;;5115891;28;20020;-73
2021/11/08 13:51:34;;;;;;;9.85;5.40;;;18.40;99.90;;;;;;5115831;28;20044;-73
2021/11/08 13:54:05;;;;;;;9.43;5.05;;;18.30;99.90;;;;;;5116518;28;20533;-72
2021/11/08 13:56:35;;;;;;;12.07;5.63;;;18.30;99.90;;;;;;5116721;28;20024;-75
2021/11/08 13:59:06;;;;;;;9.55;5.05;;;18.30;99.90;;;;;;5116291;28;20051;-73
2021/11/08 14:01:36;;;;;;;10.98;4.75;;;18.30;99.90;;;;;;5115787;28;20024;-73
2021/11/08 14:04:04;;;;;;;8.75;4.78;;;18.30;99.90;;;;;;5116071;28;20027;-75
2021/11/08 14:06:34;;;;;;;13.00;6.53;;;18.30;99.90;;;;;;5116330;28;20019;-75
2021/11/08 14:09:04;;;;;;;10.95;5.15;;;18.40;99.90;;;;;;5115763;28;20032;-73
2021/11/08 14:11:41;;;;;;;11.63;5.93;;;18.50;99.90;;;;;;5115951;28;20525;-72
2021/11/08 14:14:12;;;;;;;9.75;5.15;;;18.50;99.90;;;;;;5115608;28;20020;-72
2021/11/08 14:16:41;;;;;;;11.95;5.47;;;18.50;99.90;;;;;;5115834;28;20038;-74
2021/11/08 14:19:08;;;;;;;12.02;5.40;;;18.50;99.90;;;;;;5115650;28;20106;-73
2021/11/08 14:21:35;;;;;;;12.13;7.03;;;18.50;99.90;;;;;;5115218;28;20036;-74
2021/11/08 14:24:10;;;;;;;12.90;6.10;;;18.50;99.90;;;;;;5115636;28;20081;-74
2021/11/08 14:26:39;;;;;;;10.55;5.22;;;18.50;99.90;;;;;;5115730;28;20024;-74
2021/11/08 14:29:18;;;;;;;13.98;7.80;;;18.50;99.90;;;;;;5115448;28;20106;-74
2021/11/08 14:31:51;;;;;;;10.38;5.65;;;18.40;99.90;;;;;;5115331;28;20036;-74
2021/11/08 14:34:20;;;;;;;12.38;6.80;;;18.40;99.90;;;;;;5115364;28;20020;-74
2021/11/08 14:36:48;;;;;;;13.90;6.43;;;18.40;99.90;;;;;;5115371;28;20092;-75
2021/11/08 14:39:24;;;;;;;14.73;6.88;;;18.50;99.90;;;;;;5114587;28;20027;-76